Time;durP1;ratioP1;P1;durP2;ratioP2;P2;SDS_P1;SDS_P2;PMS_P1;PMS_P2;Temp;Humidity;BMP_temperature;BMP_pressure;BME280_temperature;BME280_humidity;BME280_pressure;Samples;Min_cycle;Max_cycle;Signal;HPM_P1;HPM_P2
2022/09/28 00:01:29;;;;;;;0.77;0.60;;;11.80;99.90;;;;;;5012950;28;20698;-56
2022/09/28 00:03:58;;;;;;;1.07;0.50;;;11.80;99.90;;;;;;5013795;28;20216;-56
2022/09/28 00:06:26;;;;;;;2.17;0.40;;;11.70;99.90;;;;;;5013891;28;20581;-56
2022/09/28 00:08:54;;;;;;;0.73;0.60;;;11.70;99.90;;;;;;5013806;28;20695;-56
2022/09/28 00:11:27;;;;;;;1.20;0.60;;;11.70;99.90;;;;;;5013255;28;20261;-56
2022/09/28 00:13:56;;;;;;;0.60;0.60;;;11.70;99.90;;;;;;5013931;28;20218;-56
2022/09/28 00:16:26;;;;;;;1.53;0.83;;;11.60;99.90;;;;;;5012952;28;20224;-56
2022/09/28 00:18:53;;;;;;;1.10;0.50;;;11.70;99.90;;;;;;5013335;28;20227;-56
2022/09/28 00:21:22;;;;;;;1.00;0.70;;;11.70;99.90;;;;;;5012700;28;20215;-56
2022/09/28 00:26:39;;;;;;;1.40;0.80;;;11.80;99.90;;;;;;5013585;28;20567;-56
2022/09/28 00:29:07;;;;;;;1.13;0.40;;;11.80;99.90;;;;;;5013132;28;20235;-56
2022/09/28 00:31:35;;;;;;;0.53;0.40;;;11.80;99.90;;;;;;5012435;28;20277;-56
2022/09/28 00:34:04;;;;;;;1.27;0.77;;;11.80;99.90;;;;;;5013375;28;20218;-56
2022/09/28 00:36:32;;;;;;;2.03;0.57;;;11.80;99.90;;;;;;5013145;28;20231;-56
2022/09/28 00:38:59;;;;;;;1.43;0.70;;;11.80;99.90;;;;;;5013083;28;20230;-56
2022/09/28 00:41:28;;;;;;;2.73;0.53;;;11.70;99.90;;;;;;5012313;28;20753;-56
2022/09/28 00:44:28;;;;;;;1.13;0.70;;;11.70;99.90;;;;;;5012909;28;20211;-56
2022/09/28 00:47:00;;;;;;;1.17;0.67;;;11.70;99.90;;;;;;5013026;28;20207;-56
2022/09/28 00:49:32;;;;;;;1.50;0.70;;;11.70;99.90;;;;;;5012918;28;20230;-56
2022/09/28 00:51:59;;;;;;;1.53;0.60;;;11.70;99.90;;;;;;5012322;28;20293;-57
2022/09/28 00:54:25;;;;;;;1.07;0.43;;;11.80;99.90;;;;;;5012797;28;20203;-60
2022/09/28 00:56:52;;;;;;;0.50;0.50;;;11.80;99.90;;;;;;5012580;28;20222;-56
2022/09/28 00:59:19;;;;;;;0.87;0.50;;;11.80;99.90;;;;;;5012807;28;20293;-56
2022/09/28 01:01:45;;;;;;;0.67;0.50;;;11.90;99.90;;;;;;5012154;28;20207;-55
2022/09/28 01:04:14;;;;;;;1.10;0.40;;;11.90;99.90;;;;;;5012809;28;20246;-55
2022/09/28 01:06:40;;;;;;;1.50;0.87;;;11.90;99.90;;;;;;5012517;28;20265;-55
2022/09/28 01:09:10;;;;;;;1.70;0.40;;;11.90;99.90;;;;;;5012504;28;20723;-55
2022/09/28 01:11:38;;;;;;;1.53;0.60;;;11.90;99.90;;;;;;5011812;28;20690;-55
2022/09/28 01:14:08;;;;;;;1.73;0.80;;;11.90;99.90;;;;;;5012545;28;20207;-55
2022/09/28 01:16:44;;;;;;;2.23;0.50;;;11.90;99.90;;;;;;5012600;28;20249;-56
2022/09/28 01:19:28;;;;;;;2.73;0.80;;;11.90;99.90;;;;;;5012364;28;20289;-55
2022/09/28 01:22:10;;;;;;;2.17;0.70;;;11.90;99.90;;;;;;5011701;28;20265;-55
2022/09/28 01:24:42;;;;;;;1.90;0.50;;;12.00;99.90;;;;;;5012681;28;20214;-55
2022/09/28 01:27:19;;;;;;;4.60;0.77;;;12.10;99.90;;;;;;5011589;28;20209;-55
2022/09/28 01:29:51;;;;;;;2.33;0.70;;;12.00;99.90;;;;;;5012422;28;20362;-55
2022/09/28 01:32:27;;;;;;;2.83;1.00;;;12.10;99.90;;;;;;5011645;28;20701;-55
2022/09/28 01:34:58;;;;;;;1.20;0.77;;;12.10;99.90;;;;;;5012547;28;20214;-55
2022/09/28 01:37:32;;;;;;;1.30;0.70;;;12.10;99.90;;;;;;5012321;28;20222;-55
2022/09/28 01:40:00;;;;;;;1.07;0.80;;;12.20;99.90;;;;;;5012311;28;20737;-55
2022/09/28 01:42:32;;;;;;;1.93;1.10;;;12.20;99.90;;;;;;5011414;28;20203;-55
2022/09/28 01:45:05;;;;;;;1.23;0.70;;;12.20;99.90;;;;;;5012754;28;20215;-55
2022/09/28 01:47:36;;;;;;;2.73;1.20;;;12.20;99.90;;;;;;5012298;28;20611;-55
2022/09/28 01:50:09;;;;;;;2.83;0.83;;;12.20;99.90;;;;;;5012631;28;20284;-55
2022/09/28 01:52:40;;;;;;;2.07;0.63;;;12.20;99.90;;;;;;5011616;28;20207;-55
2022/09/28 01:55:12;;;;;;;1.10;0.63;;;12.20;99.90;;;;;;5012241;28;20297;-55
2022/09/28 01:57:43;;;;;;;1.50;0.60;;;12.20;99.90;;;;;;5012039;28;20707;-55
2022/09/28 02:00:13;;;;;;;1.50;0.67;;;12.10;99.90;;;;;;5012052;28;20234;-56
2022/09/28 02:02:45;;;;;;;1.07;0.50;;;12.10;99.90;;;;;;5011303;28;20222;-55
2022/09/28 02:05:16;;;;;;;2.23;0.90;;;12.10;99.90;;;;;;5011849;28;20675;-56
2022/09/28 02:07:47;;;;;;;1.50;0.70;;;12.20;99.90;;;;;;5011902;28;20211;-55
2022/09/28 02:10:19;;;;;;;4.30;0.87;;;12.20;99.90;;;;;;5011914;28;20308;-55
2022/09/28 02:12:51;;;;;;;3.10;0.83;;;12.20;99.90;;;;;;5011243;28;20223;-54
2022/09/28 02:15:22;;;;;;;1.37;1.00;;;12.20;99.90;;;;;;5011822;28;20211;-54
2022/09/28 02:17:50;;;;;;;2.63;1.10;;;12.10;99.90;;;;;;5011669;28;20289;-54
2022/09/28 02:20:17;;;;;;;2.33;0.93;;;12.10;99.90;;;;;;5011666;28;20602;-55
2022/09/28 02:22:47;;;;;;;1.87;0.50;;;12.10;99.90;;;;;;5011209;28;20210;-55
2022/09/28 02:25:20;;;;;;;2.57;1.07;;;12.10;99.90;;;;;;5011813;28;20210;-55
2022/09/28 02:27:53;;;;;;;2.73;0.67;;;12.10;99.90;;;;;;5011796;28;20203;-55
2022/09/28 02:30:20;;;;;;;3.57;1.10;;;12.10;99.90;;;;;;5011574;28;20235;-55
2022/09/28 02:32:49;;;;;;;2.27;0.90;;;12.10;99.90;;;;;;5011248;28;20285;-55
2022/09/28 02:35:18;;;;;;;3.20;0.93;;;12.10;99.90;;;;;;5011805;28;20211;-55
2022/09/28 02:37:45;;;;;;;2.83;1.00;;;12.10;99.90;;;;;;5011543;28;20231;-55
2022/09/28 02:40:14;;;;;;;4.27;1.07;;;12.10;99.90;;;;;;5014419;28;20774;-55
2022/09/28 02:42:52;;;;;;;2.77;0.90;;;12.10;99.90;;;;;;5014560;28;20211;-56
2022/09/28 02:45:34;;;;;;;2.77;0.83;;;12.20;99.90;;;;;;5015831;28;20202;-56
2022/09/28 02:48:10;;;;;;;3.10;1.13;;;12.20;99.90;;;;;;5015601;28;20659;-56
2022/09/28 02:50:46;;;;;;;2.33;0.80;;;12.20;99.90;;;;;;5015004;28;20223;-56
2022/09/28 02:53:33;;;;;;;3.37;1.17;;;12.30;99.90;;;;;;5014377;28;20202;-56
2022/09/28 02:56:16;;;;;;;3.27;0.93;;;12.40;99.90;;;;;;5015158;28;20266;-56
2022/09/28 02:58:53;;;;;;;4.80;1.13;;;12.40;99.90;;;;;;5014801;28;20238;-55
2022/09/28 03:01:28;;;;;;;2.03;0.73;;;12.40;99.90;;;;;;5014970;28;20280;-56
2022/09/28 03:04:00;;;;;;;5.33;1.10;;;12.40;99.90;;;;;;5015086;28;20206;-55
2022/09/28 03:06:36;;;;;;;2.67;0.90;;;12.40;99.90;;;;;;5014771;28;20245;-56
2022/09/28 03:09:08;;;;;;;2.63;0.70;;;12.50;99.90;;;;;;5014753;28;20318;-56
2022/09/28 03:11:40;;;;;;;4.17;1.20;;;12.40;99.90;;;;;;5014062;28;20738;-55
2022/09/28 03:14:07;;;;;;;2.60;0.97;;;12.30;99.90;;;;;;5014577;28;20214;-54
2022/09/28 03:16:35;;;;;;;2.93;0.87;;;12.30;99.90;;;;;;5014696;28;20210;-54
2022/09/28 03:19:01;;;;;;;2.57;1.10;;;12.40;99.90;;;;;;5014607;28;20227;-54
2022/09/28 03:21:28;;;;;;;4.80;1.10;;;12.40;99.90;;;;;;5013971;28;20264;-54
2022/09/28 03:23:55;;;;;;;2.97;1.27;;;12.50;99.90;;;;;;5014485;28;20207;-54
2022/09/28 03:26:21;;;;;;;3.23;0.97;;;12.40;99.90;;;;;;5014300;28;20245;-55
2022/09/28 03:28:48;;;;;;;4.43;1.13;;;12.40;99.90;;;;;;5014081;28;20223;-55
2022/09/28 03:31:14;;;;;;;2.87;0.80;;;12.40;99.90;;;;;;5014388;28;20210;-54
2022/09/28 03:33:42;;;;;;;2.60;0.90;;;12.40;99.90;;;;;;5013619;28;20675;-54
2022/09/28 03:36:09;;;;;;;2.70;1.00;;;12.40;99.90;;;;;;5014176;28;20215;-54
2022/09/28 03:38:36;;;;;;;2.83;0.87;;;12.40;99.90;;;;;;5014102;28;20242;-54
2022/09/28 03:41:02;;;;;;;2.57;1.13;;;12.50;99.90;;;;;;5014120;28;20277;-55
2022/09/28 03:43:31;;;;;;;2.50;0.80;;;12.50;99.90;;;;;;5013774;28;20222;-55
2022/09/28 03:46:00;;;;;;;3.60;1.00;;;12.50;99.90;;;;;;5014202;28;20215;-55
2022/09/28 03:48:29;;;;;;;3.67;1.13;;;12.50;99.90;;;;;;5014041;28;20287;-55
2022/09/28 03:50:59;;;;;;;5.37;1.17;;;12.40;99.90;;;;;;5012982;28;20203;-55
2022/09/28 03:53:27;;;;;;;3.23;1.27;;;12.50;99.90;;;;;;5013400;28;20610;-55
2022/09/28 03:55:54;;;;;;;7.67;1.90;;;12.50;99.90;;;;;;5013674;28;20297;-56
2022/09/28 03:58:21;;;;;;;5.63;1.30;;;12.50;99.90;;;;;;5013804;28;20227;-55
2022/09/28 04:00:49;;;;;;;4.57;1.47;;;12.50;99.90;;;;;;5013863;28;20207;-55
2022/09/28 04:03:16;;;;;;;3.13;1.87;;;12.50;99.90;;;;;;5013269;28;20208;-55
2022/09/28 04:05:49;;;;;;;1.77;1.20;;;12.50;99.90;;;;;;5014056;28;20214;-56
2022/09/28 04:08:17;;;;;;;1.43;0.70;;;12.50;99.90;;;;;;5013528;28;20210;-55
2022/09/28 04:10:43;;;;;;;0.83;0.50;;;12.50;99.90;;;;;;5013203;28;20246;-55
2022/09/28 04:13:10;;;;;;;1.83;0.83;;;12.40;99.90;;;;;;5012977;28;20211;-55
2022/09/28 04:15:37;;;;;;;1.63;0.70;;;12.40;99.90;;;;;;5013365;28;20667;-55
2022/09/28 04:18:04;;;;;;;2.20;1.03;;;12.40;99.90;;;;;;5013295;28;20573;-55
2022/09/28 04:20:32;;;;;;;2.53;1.00;;;12.50;99.90;;;;;;5013218;28;20315;-55
2022/09/28 04:22:58;;;;;;;4.00;0.90;;;12.50;99.90;;;;;;5012700;28;20238;-55
2022/09/28 04:25:26;;;;;;;3.80;1.70;;;12.50;99.90;;;;;;5013395;28;20269;-55
2022/09/28 04:30:37;;;;;;;2.30;1.70;;;12.40;99.90;;;;;;5013234;28;20422;-55
2022/09/28 04:33:04;;;;;;;6.93;4.80;;;12.30;99.90;;;;;;5012492;28;20214;-55
2022/09/28 04:35:31;;;;;;;3.43;0.83;;;12.30;99.90;;;;;;5012995;28;20203;-55
2022/09/28 04:37:58;;;;;;;1.80;0.93;;;12.30;99.90;;;;;;5013195;28;20277;-55
2022/09/28 04:40:26;;;;;;;2.70;0.80;;;12.30;99.90;;;;;;5013039;28;20234;-55
2022/09/28 04:42:56;;;;;;;3.30;1.67;;;12.40;99.90;;;;;;5012586;28;20246;-56
2022/09/28 04:45:24;;;;;;;26.70;15.07;;;12.40;99.90;;;;;;5013230;28;20210;-55
2022/09/28 04:47:51;;;;;;;3.10;1.13;;;12.40;99.90;;;;;;5012697;28;20230;-55
2022/09/28 04:50:18;;;;;;;3.87;2.53;;;12.40;99.90;;;;;;5012862;28;20716;-56
2022/09/28 04:52:44;;;;;;;2.07;0.93;;;12.40;99.90;;;;;;5012432;28;20207;-56
2022/09/28 04:55:13;;;;;;;4.97;1.00;;;12.30;99.90;;;;;;5013072;28;20214;-55
2022/09/28 04:57:41;;;;;;;3.87;1.20;;;12.30;99.90;;;;;;5012733;28;20229;-55
2022/09/28 05:00:09;;;;;;;10.60;5.83;;;12.40;99.90;;;;;;5012765;28;20280;-55
2022/09/28 05:02:36;;;;;;;2.00;1.20;;;12.40;99.90;;;;;;5011808;28;20302;-55
2022/09/28 05:05:02;;;;;;;4.33;1.43;;;12.40;99.90;;;;;;5012728;28;20257;-55
2022/09/28 05:07:30;;;;;;;2.83;1.10;;;12.40;99.90;;;;;;5012588;28;20257;-56
2022/09/28 05:09:56;;;;;;;2.67;1.13;;;12.40;99.90;;;;;;5012804;28;20238;-55
2022/09/28 05:12:23;;;;;;;3.00;1.10;;;12.40;99.90;;;;;;5012053;28;20261;-56
2022/09/28 05:14:51;;;;;;;3.77;1.30;;;12.40;99.90;;;;;;5012439;28;20631;-56
2022/09/28 05:17:18;;;;;;;3.50;1.57;;;12.40;99.90;;;;;;5012737;28;20261;-55
2022/09/28 05:19:44;;;;;;;4.40;1.10;;;12.40;99.90;;;;;;5012552;28;20230;-55
2022/09/28 05:22:13;;;;;;;4.77;1.23;;;12.40;99.90;;;;;;5011783;28;20269;-55
2022/09/28 05:24:40;;;;;;;2.83;1.00;;;12.40;99.90;;;;;;5012394;28;20214;-54
2022/09/28 05:27:07;;;;;;;3.03;1.20;;;12.40;99.90;;;;;;5012254;28;20261;-55
2022/09/28 05:29:33;;;;;;;2.63;1.37;;;12.40;99.90;;;;;;5012053;28;20230;-56
2022/09/28 05:32:01;;;;;;;4.17;1.30;;;12.30;99.90;;;;;;5011978;28;20206;-55
2022/09/28 05:34:28;;;;;;;2.30;1.30;;;12.40;99.90;;;;;;5012604;28;20211;-55
2022/09/28 05:36:55;;;;;;;3.33;1.03;;;12.30;99.90;;;;;;5012164;28;20217;-56
2022/09/28 05:39:22;;;;;;;4.80;2.03;;;12.30;99.90;;;;;;5011941;28;20227;-55
2022/09/28 05:41:49;;;;;;;4.80;1.80;;;12.40;99.90;;;;;;5011403;28;20202;-55
2022/09/28 05:44:15;;;;;;;4.37;1.40;;;12.40;99.90;;;;;;5011965;28;20234;-55
2022/09/28 05:46:42;;;;;;;7.50;4.10;;;12.40;99.90;;;;;;5011857;28;20526;-56
2022/09/28 05:49:10;;;;;;;3.73;1.70;;;12.40;99.90;;;;;;5012003;28;20863;-56
2022/09/28 05:51:38;;;;;;;5.07;1.20;;;12.30;99.90;;;;;;5011905;28;20675;-56
2022/09/28 05:54:05;;;;;;;3.13;1.57;;;12.30;99.90;;;;;;5012270;28;20214;-56
2022/09/28 05:56:31;;;;;;;4.47;1.30;;;12.20;99.90;;;;;;5011921;28;20211;-55
2022/09/28 05:58:58;;;;;;;3.47;1.00;;;12.30;99.90;;;;;;5011862;28;20932;-57
2022/09/28 06:01:25;;;;;;;3.17;1.03;;;12.20;99.90;;;;;;5011868;28;20663;-56
2022/09/28 06:03:51;;;;;;;2.13;1.00;;;12.30;99.90;;;;;;5011174;28;20213;-55
2022/09/28 06:06:19;;;;;;;3.43;1.30;;;12.20;99.90;;;;;;5011847;28;20202;-55
2022/09/28 06:08:47;;;;;;;3.10;1.30;;;12.20;99.90;;;;;;5011411;28;20219;-55
2022/09/28 06:11:14;;;;;;;5.30;1.20;;;12.20;99.90;;;;;;5011768;28;20211;-56
2022/09/28 06:13:40;;;;;;;2.30;0.90;;;12.20;99.90;;;;;;5011831;28;20203;-57
2022/09/28 06:16:07;;;;;;;3.17;1.40;;;12.30;99.90;;;;;;5015663;28;20210;-55
2022/09/28 06:18:34;;;;;;;2.87;1.40;;;12.30;99.90;;;;;;5015490;28;20322;-55
2022/09/28 06:21:01;;;;;;;4.40;2.53;;;12.30;99.90;;;;;;5015478;28;20214;-55
2022/09/28 06:23:29;;;;;;;3.03;1.20;;;12.20;99.90;;;;;;5015015;28;20261;-54
2022/09/28 06:25:58;;;;;;;2.10;1.03;;;12.20;99.90;;;;;;5015333;28;20230;-54
2022/09/28 06:28:25;;;;;;;2.30;1.20;;;12.30;99.90;;;;;;5015626;28;20249;-55
2022/09/28 06:30:52;;;;;;;1.63;1.00;;;12.40;99.90;;;;;;5015663;28;20626;-55
2022/09/28 06:33:20;;;;;;;1.60;0.90;;;12.50;99.90;;;;;;5015331;28;20209;-55
2022/09/28 06:35:47;;;;;;;1.53;1.17;;;12.50;99.90;;;;;;5015490;28;20298;-55
2022/09/28 06:38:14;;;;;;;2.63;1.03;;;12.70;99.90;;;;;;5015205;28;20230;-55
2022/09/28 06:40:42;;;;;;;2.03;1.13;;;12.70;99.90;;;;;;5015629;28;20250;-55
2022/09/28 06:43:13;;;;;;;2.57;1.40;;;12.80;99.90;;;;;;5014893;28;20203;-55
2022/09/28 06:45:41;;;;;;;4.10;1.80;;;12.80;99.90;;;;;;5016490;28;20619;-55
2022/09/28 06:48:09;;;;;;;2.67;1.40;;;12.90;99.90;;;;;;5016381;28;20238;-55
2022/09/28 06:50:37;;;;;;;2.70;1.17;;;13.00;99.90;;;;;;5016905;28;20226;-55
2022/09/28 06:53:06;;;;;;;4.13;1.17;;;13.00;99.90;;;;;;5015120;28;20487;-54
2022/09/28 06:55:33;;;;;;;2.93;1.30;;;12.90;99.90;;;;;;5015233;28;20298;-55
2022/09/28 06:58:02;;;;;;;2.40;1.33;;;13.00;99.90;;;;;;5015067;28;20306;-54
2022/09/28 07:00:31;;;;;;;3.50;1.20;;;13.00;99.90;;;;;;5014993;28;20648;-54
2022/09/28 07:02:58;;;;;;;2.83;1.30;;;13.00;99.90;;;;;;5014328;28;20213;-55
2022/09/28 07:05:27;;;;;;;2.83;1.40;;;13.00;99.90;;;;;;5014916;28;20264;-54
2022/09/28 07:07:55;;;;;;;2.00;1.20;;;13.10;99.90;;;;;;5015005;28;20210;-54
2022/09/28 07:10:23;;;;;;;3.37;1.30;;;13.20;99.90;;;;;;5050637;22;20603;-56
2022/09/28 07:12:50;;;;;;;2.43;1.20;;;13.40;99.90;;;;;;5034611;28;20206;-56
2022/09/28 07:15:19;;;;;;;3.73;1.80;;;13.50;99.90;;;;;;5035292;28;20214;-55
2022/09/28 07:17:45;;;;;;;3.87;1.70;;;13.60;99.90;;;;;;5034854;28;20222;-55
2022/09/28 07:20:13;;;;;;;2.80;1.50;;;13.70;99.90;;;;;;5034816;28;20230;-55
2022/09/28 07:22:41;;;;;;;2.10;1.83;;;13.90;99.90;;;;;;5034370;28;20691;-55
2022/09/28 07:25:09;;;;;;;2.50;1.40;;;14.00;99.90;;;;;;5035094;28;20210;-55
2022/09/28 07:27:35;;;;;;;2.57;1.60;;;14.10;99.90;;;;;;5034772;28;20293;-54
2022/09/28 07:30:02;;;;;;;3.50;1.27;;;14.20;99.90;;;;;;5034861;28;20222;-57
2022/09/28 07:32:33;;;;;;;3.40;1.70;;;14.30;99.90;;;;;;5034535;28;20214;-56
2022/09/28 07:35:07;;;;;;;5.60;1.83;;;14.30;99.90;;;;;;5035132;28;20225;-56
2022/09/28 07:37:35;;;;;;;3.07;1.23;;;14.40;99.90;;;;;;5034532;28;20205;-56
2022/09/28 07:42:46;;;;;;;3.90;1.57;;;14.60;99.90;;;;;;5034765;28;20256;-56
2022/09/28 07:45:13;;;;;;;4.23;1.70;;;14.80;99.90;;;;;;5035762;28;20219;-56
2022/09/28 07:47:41;;;;;;;5.67;1.80;;;14.90;99.90;;;;;;5036016;28;20198;-56
2022/09/28 07:50:09;;;;;;;4.20;1.60;;;14.90;99.90;;;;;;5034852;28;20229;-58
2022/09/28 07:52:35;;;;;;;4.60;1.70;;;15.00;99.90;;;;;;5033985;28;20276;-56
2022/09/28 07:55:03;;;;;;;4.07;1.60;;;15.00;99.90;;;;;;5034674;28;20209;-55
2022/09/28 07:57:32;;;;;;;3.03;1.53;;;15.00;99.90;;;;;;5034744;28;20685;-56
2022/09/28 07:59:59;;;;;;;3.47;1.57;;;15.00;99.90;;;;;;5035612;28;20262;-55
2022/09/28 08:02:26;;;;;;;2.47;1.60;;;14.90;99.90;;;;;;5034571;28;20207;-56
2022/09/28 08:04:55;;;;;;;3.43;1.77;;;14.80;99.90;;;;;;5034107;28;20202;-56
2022/09/28 08:07:22;;;;;;;4.10;1.80;;;14.60;99.90;;;;;;5033972;28;20704;-56
2022/09/28 08:09:49;;;;;;;3.33;1.50;;;14.70;99.90;;;;;;5033707;28;20234;-56
2022/09/28 08:12:18;;;;;;;4.80;1.77;;;14.80;99.90;;;;;;5033730;28;20209;-56
2022/09/28 08:14:45;;;;;;;1.77;1.50;;;15.00;99.90;;;;;;5033958;28;20234;-55
2022/09/28 08:17:12;;;;;;;3.90;1.70;;;15.30;99.90;;;;;;5034094;28;20217;-56
2022/09/28 08:22:24;;;;;;;3.33;1.57;;;15.80;99.90;;;;;;5033929;28;20267;-56
2022/09/28 08:24:51;;;;;;;4.17;1.73;;;16.00;99.90;;;;;;5034521;28;20213;-57
2022/09/28 08:27:18;;;;;;;2.23;1.33;;;16.00;99.90;;;;;;5034108;28;20214;-56
2022/09/28 08:29:45;;;;;;;5.40;1.87;;;16.00;99.90;;;;;;5029803;28;20698;-56
2022/09/28 08:32:11;;;;;;;3.37;1.40;;;16.10;99.90;;;;;;5030129;28;20210;-60
2022/09/28 08:34:40;;;;;;;4.50;1.40;;;16.20;99.90;;;;;;5033144;28;20206;-59
2022/09/28 08:37:08;;;;;;;4.50;1.90;;;16.30;99.90;;;;;;5032612;28;20206;-57
2022/09/28 08:39:36;;;;;;;3.63;1.90;;;16.20;99.90;;;;;;5032948;28;20706;-57
2022/09/28 08:42:17;;;;;;;2.80;1.50;;;16.10;99.90;;;;;;5032477;28;20214;-57
2022/09/28 08:44:47;;;;;;;2.37;1.40;;;15.90;99.90;;;;;;5032877;28;20210;-58
2022/09/28 08:50:02;;;;;;;2.93;1.50;;;16.00;99.90;;;;;;5031855;28;20226;-59
2022/09/28 08:52:34;;;;;;;2.67;1.50;;;16.00;99.90;;;;;;5032352;28;20202;-59
2022/09/28 08:55:09;;;;;;;2.90;1.73;;;16.10;99.90;;;;;;5032031;28;20202;-59
2022/09/28 08:57:40;;;;;;;5.90;1.67;;;16.10;99.90;;;;;;5031827;28;20206;-58
2022/09/28 09:00:17;;;;;;;3.13;1.57;;;16.20;99.90;;;;;;5032441;28;20265;-59
2022/09/28 09:02:45;;;;;;;3.27;1.63;;;16.40;99.90;;;;;;5031580;28;20259;-59
2022/09/28 09:05:15;;;;;;;4.60;1.63;;;16.50;99.90;;;;;;5032014;28;20210;-59
2022/09/28 09:08:07;;;;;;;4.50;1.67;;;16.60;99.90;;;;;;5031293;28;20260;-59
2022/09/28 09:10:52;;;;;;;3.57;1.53;;;16.70;99.90;;;;;;5031966;28;20238;-58
2022/09/28 09:13:50;;;;;;;3.25;1.55;;;16.80;99.90;;;;;;5031719;28;20214;-59
2022/09/28 09:16:28;;;;;;;48.08;41.53;;;16.80;99.90;;;;;;5031707;28;20210;-61
2022/09/28 09:18:59;;;;;;;4.30;1.88;;;16.90;99.90;;;;;;5032641;28;20230;-57
2022/09/28 09:21:39;;;;;;;3.53;1.63;;;16.90;99.90;;;;;;5032422;28;20585;-57
2022/09/28 09:24:23;;;;;;;3.40;1.60;;;16.90;99.90;;;;;;5032151;28;20214;-57
2022/09/28 09:27:02;;;;;;;6.78;1.58;;;16.80;99.90;;;;;;5032263;28;20263;-58
2022/09/28 09:29:45;;;;;;;3.03;1.50;;;16.80;99.90;;;;;;5032834;28;20225;-58
2022/09/28 09:32:32;;;;;;;3.67;2.00;;;16.90;99.90;;;;;;5031779;28;20689;-57
2022/09/28 09:35:19;;;;;;;3.67;1.60;;;17.10;99.90;;;;;;5032519;28;20617;-58
2022/09/28 09:38:05;;;;;;;2.60;1.33;;;17.20;99.90;;;;;;5032473;28;20190;-57
2022/09/28 09:41:02;;;;;;;4.82;1.38;;;17.40;99.90;;;;;;5032315;28;20233;-58
2022/09/28 09:43:58;;;;;;;4.32;1.40;;;17.40;99.90;;;;;;5023165;28;20682;-57
2022/09/28 09:46:34;;;;;;;3.85;1.80;;;17.30;99.90;;;;;;5032568;28;20629;-57
2022/09/28 09:49:06;;;;;;;3.83;1.30;;;17.30;99.90;;;;;;5032988;28;20212;-58
2022/09/28 09:51:40;;;;;;;3.28;1.35;;;17.20;99.90;;;;;;5036493;28;20206;-57
2022/09/28 09:54:16;;;;;;;2.90;1.40;;;17.10;99.90;;;;;;5035815;28;20206;-58
2022/09/28 09:56:47;;;;;;;3.20;1.17;;;17.00;99.90;;;;;;5036443;28;20213;-57
2022/09/28 09:59:19;;;;;;;29.15;26.02;;;17.00;99.90;;;;;;5036163;28;20230;-58
2022/09/28 10:01:46;;;;;;;4.65;2.00;;;17.00;99.90;;;;;;5036446;28;20214;-59
2022/09/28 10:04:19;;;;;;;3.28;1.50;;;17.10;99.90;;;;;;5035944;28;20206;-65
2022/09/28 10:06:49;;;;;;;3.53;1.70;;;17.20;99.90;;;;;;5036312;28;20202;-63
2022/09/28 10:09:23;;;;;;;2.78;1.40;;;17.40;99.90;;;;;;5036341;28;20732;-60
2022/09/28 10:11:51;;;;;;;2.53;1.60;;;17.50;99.90;;;;;;5036137;28;20228;-58
2022/09/28 10:14:21;;;;;;;4.72;2.05;;;17.70;99.90;;;;;;5035407;28;20206;-59
2022/09/28 10:16:49;;;;;;;3.33;1.50;;;17.80;99.90;;;;;;5036869;28;20230;-60
2022/09/28 10:19:18;;;;;;;3.22;1.35;;;17.80;99.90;;;;;;5036394;28;20236;-62
2022/09/28 10:21:46;;;;;;;3.75;1.42;;;17.90;99.90;;;;;;5036794;28;20249;-57
2022/09/28 10:24:22;;;;;;;2.33;1.23;;;17.90;99.90;;;;;;5035683;28;20198;-57
2022/09/28 10:26:53;;;;;;;3.25;1.40;;;17.90;99.90;;;;;;5035866;28;20209;-57
2022/09/28 10:29:24;;;;;;;1.98;1.23;;;18.00;99.90;;;;;;5035602;28;20231;-57
2022/09/28 10:31:52;;;;;;;3.83;1.45;;;17.90;99.90;;;;;;5035729;28;20205;-56
2022/09/28 10:34:25;;;;;;;2.72;1.25;;;17.60;99.90;;;;;;5035434;28;20214;-56
2022/09/28 10:36:56;;;;;;;4.00;1.80;;;17.40;99.90;;;;;;5036045;28;20218;-57
2022/09/28 10:39:31;;;;;;;2.95;1.50;;;17.40;99.90;;;;;;5035724;28;20303;-57
2022/09/28 10:42:02;;;;;;;3.42;1.65;;;17.30;99.90;;;;;;5035748;28;20209;-57
2022/09/28 10:44:32;;;;;;;6.07;3.13;;;17.30;99.90;;;;;;5035061;28;20218;-57
2022/09/28 10:47:01;;;;;;;3.77;2.17;;;17.30;99.90;;;;;;5035793;28;20229;-57
2022/09/28 10:49:31;;;;;;;6.32;1.60;;;17.40;99.90;;;;;;5035704;28;20226;-57
2022/09/28 10:51:58;;;;;;;5.18;1.80;;;17.50;99.90;;;;;;5036361;28;20211;-57
2022/09/28 10:54:26;;;;;;;4.97;2.07;;;17.60;99.90;;;;;;5035158;28;20206;-57
2022/09/28 10:56:55;;;;;;;3.95;1.98;;;17.70;99.90;;;;;;5036108;28;20233;-58
2022/09/28 10:59:38;;;;;;;4.47;2.40;;;17.80;99.90;;;;;;5035401;28;20222;-57
2022/09/28 11:02:19;;;;;;;5.00;2.03;;;17.90;99.90;;;;;;5035484;28;20214;-60
2022/09/28 11:04:53;;;;;;;3.20;1.58;;;17.90;99.90;;;;;;5035291;28;20209;-57
2022/09/28 11:07:23;;;;;;;4.47;1.70;;;18.00;99.90;;;;;;5035394;28;20209;-58
2022/09/28 11:09:50;;;;;;;3.80;1.35;;;18.10;99.90;;;;;;5034583;28;20268;-57
2022/09/28 11:12:20;;;;;;;3.15;1.52;;;18.00;99.90;;;;;;5034497;28;20210;-57
2022/09/28 11:14:51;;;;;;;6.32;1.83;;;18.00;99.90;;;;;;5035038;28;20289;-57
2022/09/28 11:17:25;;;;;;;3.20;1.42;;;18.00;99.90;;;;;;5035657;28;20670;-58
2022/09/28 11:19:52;;;;;;;4.57;1.77;;;18.00;99.90;;;;;;5035840;28;20234;-56
2022/09/28 11:22:27;;;;;;;4.47;1.88;;;17.90;99.90;;;;;;5034840;28;20217;-57
2022/09/28 11:25:14;;;;;;;5.80;3.38;;;17.90;99.90;;;;;;5035514;28;20206;-61
2022/09/28 11:27:40;;;;;;;3.95;1.80;;;17.90;99.90;;;;;;5035408;28;20252;-58
2022/09/28 11:30:22;;;;;;;4.47;1.83;;;17.90;99.90;;;;;;5034588;28;20579;-57
2022/09/28 11:32:50;;;;;;;3.22;1.50;;;18.00;99.90;;;;;;5034359;28;20210;-57
2022/09/28 11:35:20;;;;;;;4.88;2.70;;;18.00;99.90;;;;;;5034713;28;20221;-56
2022/09/28 11:38:00;;;;;;;6.70;2.22;;;18.20;99.90;;;;;;5034656;28;20206;-57
2022/09/28 11:40:41;;;;;;;2.13;1.20;;;18.40;99.90;;;;;;5034309;28;20230;-56
2022/09/28 11:43:16;;;;;;;5.43;1.40;;;18.50;99.90;;;;;;5034044;28;20209;-56
2022/09/28 11:45:54;;;;;;;3.25;1.20;;;18.50;99.90;;;;;;5034375;28;20226;-57
2022/09/28 11:48:25;;;;;;;3.63;1.55;;;18.40;99.90;;;;;;5034049;28;20214;-58
2022/09/28 11:50:55;;;;;;;2.55;1.38;;;18.50;99.90;;;;;;5033969;28;20261;-57
2022/09/28 11:53:29;;;;;;;4.85;1.27;;;18.50;99.90;;;;;;5033909;28;20592;-56
2022/09/28 11:56:00;;;;;;;4.03;1.30;;;18.50;99.90;;;;;;5034538;28;20210;-58
2022/09/28 11:58:31;;;;;;;1.90;1.20;;;18.50;99.90;;;;;;5034295;28;20210;-58
2022/09/28 12:01:03;;;;;;;5.00;1.38;;;18.50;99.90;;;;;;5033827;28;20273;-57
2022/09/28 12:03:35;;;;;;;3.60;1.33;;;18.40;99.90;;;;;;5033485;28;20229;-57
2022/09/28 12:06:05;;;;;;;2.20;1.10;;;18.40;99.90;;;;;;5034062;28;20210;-58
2022/09/28 12:08:36;;;;;;;4.13;1.02;;;18.40;99.90;;;;;;5034041;28;20340;-58
2022/09/28 12:11:09;;;;;;;3.28;1.30;;;18.50;99.90;;;;;;5033381;28;20238;-58
2022/09/28 12:13:41;;;;;;;2.70;1.00;;;18.60;99.90;;;;;;5033114;28;20214;-58
2022/09/28 12:16:15;;;;;;;2.88;1.50;;;18.60;99.90;;;;;;5034050;28;20264;-56
2022/09/28 12:18:46;;;;;;;2.35;1.30;;;18.40;99.90;;;;;;5033929;28;20190;-56
2022/09/28 12:21:29;;;;;;;4.40;1.40;;;18.10;99.90;;;;;;5033543;28;20644;-57
2022/09/28 12:24:00;;;;;;;4.80;1.50;;;17.90;99.90;;;;;;5033648;28;20301;-57
2022/09/28 12:26:33;;;;;;;2.55;1.30;;;17.90;99.90;;;;;;5033752;28;20190;-57
2022/09/28 12:29:05;;;;;;;2.28;1.10;;;17.90;99.90;;;;;;5033751;28;20229;-57
2022/09/28 12:31:39;;;;;;;4.95;1.58;;;18.00;99.90;;;;;;5033692;28;20206;-57
2022/09/28 12:34:05;;;;;;;2.45;1.00;;;18.10;99.90;;;;;;5032814;28;20213;-57
2022/09/28 12:36:46;;;;;;;3.80;1.50;;;18.10;99.90;;;;;;5033251;28;20214;-57
2022/09/28 12:39:27;;;;;;;3.70;1.15;;;18.20;99.90;;;;;;5033648;28;20245;-57
2022/09/28 12:42:08;;;;;;;2.45;1.13;;;18.20;99.90;;;;;;5034015;28;20627;-58
2022/09/28 12:44:56;;;;;;;4.55;1.77;;;18.30;99.90;;;;;;5033173;28;20217;-64
2022/09/28 12:47:46;;;;;;;3.80;1.58;;;18.50;99.90;;;;;;5033733;28;20862;-58
2022/09/28 12:50:22;;;;;;;4.88;1.58;;;18.60;99.90;;;;;;5033552;28;20222;-57
2022/09/28 12:53:06;;;;;;;3.60;1.10;;;18.70;99.80;;;;;;5033262;28;20202;-58
2022/09/28 12:55:57;;;;;;;2.05;1.13;;;18.70;99.60;;;;;;5033474;28;20197;-57
2022/09/28 12:58:47;;;;;;;3.10;1.42;;;18.70;99.90;;;;;;5033367;28;20682;-57
2022/09/28 13:01:29;;;;;;;2.13;0.95;;;18.70;99.90;;;;;;5032927;28;20256;-57
2022/09/28 13:04:38;;;;;;;3.25;1.00;;;18.80;99.60;;;;;;5033234;28;20194;-58
2022/09/28 13:07:07;;;;;;;3.80;1.27;;;18.80;99.40;;;;;;5033124;28;20205;-57
2022/09/28 13:09:46;;;;;;;5.00;3.30;;;18.70;99.20;;;;;;5048133;22;20356;-57
2022/09/28 13:12:34;;;;;;;2.08;1.10;;;18.70;99.30;;;;;;5032581;28;20214;-56
2022/09/28 13:15:23;;;;;;;5.10;2.30;;;18.70;99.30;;;;;;5012808;28;20211;-56
2022/09/28 13:17:59;;;;;;;2.30;1.08;;;18.50;98.50;;;;;;5012410;28;20294;-56
2022/09/28 13:20:44;;;;;;;3.15;1.40;;;18.40;98.00;;;;;;5012083;28;20234;-56